createdAt,value
2022-11-29T00:01:05.673Z,26.97
2022-11-29T00:03:32.826Z,26.70
2022-11-29T00:06:07.616Z,27.10
2022-11-29T00:08:34.713Z,25.07
2022-11-29T00:11:14.074Z,29.03
2022-11-29T00:13:41.076Z,28.20
2022-11-29T00:16:10.132Z,26.37
2022-11-29T00:18:37.307Z,25.93
2022-11-29T00:21:08.304Z,28.37
2022-11-29T00:23:35.769Z,28.07
2022-11-29T00:26:06.981Z,28.30
2022-11-29T00:28:35.016Z,24.30
2022-11-29T00:31:01.968Z,27.23
2022-11-29T00:33:29.308Z,26.67
2022-11-29T00:35:56.503Z,26.27
2022-11-29T00:38:23.596Z,26.80
2022-11-29T00:40:51.883Z,27.87
2022-11-29T00:43:18.700Z,27.40
2022-11-29T00:45:45.675Z,28.03
2022-11-29T00:48:13.000Z,27.70
2022-11-29T00:50:39.892Z,28.17
2022-11-29T00:53:06.931Z,27.90
2022-11-29T00:55:33.837Z,28.07
2022-11-29T00:58:00.612Z,26.80
2022-11-29T01:00:27.429Z,26.83
2022-11-29T01:02:54.278Z,28.13
2022-11-29T01:05:21.127Z,26.40
2022-11-29T01:07:47.960Z,27.43
2022-11-29T01:10:14.882Z,28.10
2022-11-29T01:12:41.643Z,27.33
2022-11-29T01:15:09.480Z,28.50
2022-11-29T01:17:38.374Z,26.57
2022-11-29T01:20:08.653Z,27.73
2022-11-29T01:22:35.987Z,28.27
2022-11-29T01:25:04.251Z,27.47
2022-11-29T01:27:31.045Z,26.40
2022-11-29T01:29:57.862Z,26.53
2022-11-29T01:32:24.655Z,26.50
2022-11-29T01:34:51.649Z,27.93
2022-11-29T01:37:18.533Z,29.30
2022-11-29T01:39:45.306Z,27.97
2022-11-29T01:42:13.166Z,29.40
2022-11-29T01:44:39.850Z,27.90
2022-11-29T01:47:06.682Z,27.47
2022-11-29T01:49:43.157Z,29.37
2022-11-29T01:52:12.808Z,29.13
2022-11-29T01:54:42.919Z,27.60
2022-11-29T01:57:10.455Z,27.67
2022-11-29T01:59:42.046Z,29.67
2022-11-29T02:02:17.259Z,29.03
2022-11-29T02:04:45.923Z,27.67
2022-11-29T02:07:13.026Z,28.00
2022-11-29T02:09:39.837Z,27.97
2022-11-29T02:12:15.767Z,28.73
2022-11-29T02:15:08.075Z,28.93
2022-11-29T02:17:52.515Z,27.40
2022-11-29T02:20:34.473Z,29.95
2022-11-29T02:23:33.480Z,28.07
2022-11-29T02:26:03.482Z,26.40
2022-11-29T02:28:56.494Z,30.97
2022-11-29T02:31:29.550Z,30.37
2022-11-29T02:34:30.408Z,28.70
2022-11-29T02:37:34.926Z,30.43
2022-11-29T02:40:04.675Z,27.08
2022-11-29T02:43:06.509Z,27.60
2022-11-29T02:45:40.821Z,28.13
2022-11-29T02:51:24.996Z,28.13
2022-11-29T02:53:57.453Z,26.60
2022-11-29T02:57:12.426Z,28.37
2022-11-29T02:59:47.919Z,28.33
2022-11-29T03:02:40.827Z,30.03
2022-11-29T03:05:18.669Z,28.73
2022-11-29T03:08:03.973Z,29.83
2022-11-29T03:10:39.276Z,29.07
2022-11-29T03:13:15.142Z,29.33
2022-11-29T03:15:52.968Z,28.57
2022-11-29T03:18:28.656Z,26.27
2022-11-29T03:21:07.777Z,27.23
2022-11-29T03:23:39.560Z,28.13
2022-11-29T03:26:37.927Z,27.10
2022-11-29T03:29:36.353Z,26.80
2022-11-29T03:32:15.053Z,26.53
2022-11-29T03:35:16.284Z,28.20
2022-11-29T03:37:46.345Z,26.37
2022-11-29T03:40:15.940Z,25.13
2022-11-29T03:43:00.118Z,27.90
2022-11-29T03:45:35.262Z,29.23
2022-11-29T03:48:07.700Z,28.43
2022-11-29T03:50:48.520Z,26.10
2022-11-29T03:53:22.999Z,27.70
2022-11-29T03:55:54.061Z,29.93
2022-11-29T03:58:39.516Z,27.53
2022-11-29T04:01:29.266Z,28.00
2022-11-29T04:04:41.220Z,28.13
2022-11-29T04:07:19.581Z,29.70
2022-11-29T04:10:19.888Z,28.23
2022-11-29T04:13:43.573Z,27.47
2022-11-29T04:16:37.063Z,27.30
2022-11-29T04:19:28.081Z,30.17
2022-11-29T04:22:23.660Z,27.90
2022-11-29T04:25:12.188Z,28.60
2022-11-29T04:28:01.280Z,29.67
2022-11-29T04:30:52.344Z,29.90
2022-11-29T04:33:40.661Z,28.07
2022-11-29T04:36:42.798Z,27.90
2022-11-29T04:39:39.899Z,27.50
2022-11-29T04:42:25.607Z,26.30
2022-11-29T04:45:08.172Z,28.17
2022-11-29T04:47:53.133Z,28.33
2022-11-29T04:50:47.865Z,28.23
2022-11-29T04:53:28.780Z,27.05
2022-11-29T04:56:11.116Z,29.37
2022-11-29T04:58:46.512Z,29.27
2022-11-29T05:01:21.995Z,27.87
2022-11-29T05:04:02.635Z,29.47
2022-11-29T05:06:38.874Z,27.00
2022-11-29T05:09:30.062Z,27.80
2022-11-29T05:12:39.011Z,26.83
2022-11-29T05:15:14.839Z,27.73
2022-11-29T05:17:53.049Z,27.13
2022-11-29T05:21:11.216Z,26.00
2022-11-29T05:24:18.052Z,28.07
2022-11-29T05:26:54.142Z,26.67
2022-11-29T05:29:31.338Z,28.70
2022-11-29T05:32:19.790Z,28.50
2022-11-29T05:35:07.884Z,29.10
2022-11-29T05:37:54.009Z,28.60
2022-11-29T05:40:43.781Z,27.63
2022-11-29T05:43:35.953Z,28.13
2022-11-29T05:46:25.966Z,27.73
2022-11-29T05:49:12.945Z,28.80
2022-11-29T05:51:58.580Z,29.07
2022-11-29T05:54:37.001Z,26.20
2022-11-29T05:57:22.076Z,27.87
2022-11-29T05:59:51.170Z,27.83
2022-11-29T06:02:32.846Z,26.63
2022-11-29T06:05:15.003Z,28.47
2022-11-29T06:08:05.424Z,27.70
2022-11-29T06:10:36.171Z,27.53
2022-11-29T06:13:15.431Z,29.30
2022-11-29T06:16:03.444Z,26.80
2022-11-29T06:18:37.365Z,26.30
2022-11-29T06:21:17.339Z,27.25
2022-11-29T06:23:58.629Z,27.70
2022-11-29T06:26:44.876Z,28.23
2022-11-29T06:29:33.290Z,30.00
2022-11-29T06:32:27.157Z,27.40
2022-11-29T06:35:09.350Z,25.93
2022-11-29T06:37:42.813Z,29.13
2022-11-29T06:40:12.061Z,28.05
2022-11-29T06:42:39.033Z,28.40
2022-11-29T06:45:06.548Z,27.47
2022-11-29T06:47:44.377Z,27.30
2022-11-29T06:50:32.567Z,28.73
2022-11-29T06:53:23.382Z,28.53
2022-11-29T06:56:03.330Z,27.43
2022-11-29T06:58:51.517Z,27.90
2022-11-29T07:01:40.052Z,27.10
2022-11-29T07:04:28.944Z,26.53
2022-11-29T07:06:56.444Z,26.80
2022-11-29T07:09:28.650Z,24.93
2022-11-29T07:11:55.860Z,27.27
2022-11-29T07:14:22.999Z,26.20
2022-11-29T07:17:12.393Z,27.13
2022-11-29T07:19:58.309Z,27.67
2022-11-29T07:22:47.428Z,27.20
2022-11-29T07:25:36.017Z,27.07
2022-11-29T07:28:21.925Z,26.37
2022-11-29T07:30:55.279Z,26.30
2022-11-29T07:33:55.276Z,28.33
2022-11-29T07:36:45.803Z,26.57
2022-11-29T07:39:36.309Z,27.37
2022-11-29T07:42:30.391Z,28.13
2022-11-29T07:45:03.354Z,28.67
2022-11-29T07:47:35.474Z,28.27
2022-11-29T07:50:03.539Z,27.90
2022-11-29T07:52:30.420Z,27.97
2022-11-29T07:54:57.255Z,29.27
2022-11-29T07:57:24.070Z,27.37
2022-11-29T07:59:50.835Z,29.10
2022-11-29T08:02:31.141Z,29.00
2022-11-29T08:04:58.252Z,29.40
2022-11-29T08:07:25.286Z,29.17
2022-11-29T08:09:52.168Z,30.70
2022-11-29T08:12:19.140Z,26.80
2022-11-29T08:14:46.127Z,29.27
2022-11-29T08:17:13.220Z,29.10
2022-11-29T08:19:40.105Z,29.07
2022-11-29T08:22:06.956Z,28.17
2022-11-29T08:24:33.781Z,30.07
2022-11-29T08:27:00.638Z,27.13
2022-11-29T08:29:27.533Z,28.10
2022-11-29T08:31:54.454Z,28.40
2022-11-29T08:34:22.196Z,29.13
2022-11-29T08:36:49.758Z,30.00
2022-11-29T08:39:17.176Z,30.53
2022-11-29T08:41:44.010Z,28.93
2022-11-29T08:44:10.869Z,28.70
2022-11-29T08:46:56.341Z,28.27
2022-11-29T08:49:23.120Z,29.17
2022-11-29T08:51:52.726Z,29.90
2022-11-29T08:54:19.508Z,27.80
2022-11-29T08:59:33.276Z,29.17
2022-11-29T09:02:00.198Z,29.30
2022-11-29T09:04:27.082Z,26.57
2022-11-29T09:06:53.900Z,27.63
2022-11-29T09:09:20.718Z,27.33
2022-11-29T09:11:49.536Z,28.93
2022-11-29T09:14:17.241Z,27.00
2022-11-29T09:16:44.172Z,28.57
2022-11-29T09:19:13.928Z,27.70
2022-11-29T09:21:40.797Z,27.67
2022-11-29T09:24:08.012Z,26.77
2022-11-29T09:26:36.825Z,28.73
2022-11-29T09:29:05.591Z,27.00
2022-11-29T09:31:33.055Z,27.07
2022-11-29T09:33:59.942Z,28.37
2022-11-29T09:36:29.235Z,26.47
2022-11-29T09:39:02.629Z,26.33
2022-11-29T09:41:42.959Z,27.70
2022-11-29T09:44:22.541Z,26.13
2022-11-29T09:46:58.556Z,26.13
2022-11-29T09:49:48.575Z,26.67
2022-11-29T09:52:31.416Z,28.60
2022-11-29T09:55:34.491Z,26.90
2022-11-29T09:58:04.057Z,29.83
2022-11-29T10:00:32.829Z,26.83
2022-11-29T10:03:03.793Z,27.33
2022-11-29T10:05:47.426Z,27.57
2022-11-29T10:08:19.663Z,27.45
2022-11-29T10:10:48.098Z,26.20
2022-11-29T10:13:20.153Z,26.97
2022-11-29T10:15:49.047Z,26.57
2022-11-29T10:18:21.076Z,26.77
2022-11-29T10:20:50.359Z,26.57
2022-11-29T10:23:23.223Z,28.10
2022-11-29T10:25:52.625Z,26.93
2022-11-29T10:28:21.604Z,26.87
2022-11-29T10:30:49.168Z,27.23
2022-11-29T10:33:23.437Z,31.13
2022-11-29T10:38:32.809Z,39.00
2022-11-29T10:41:09.407Z,29.17
2022-11-29T10:43:37.447Z,27.53
2022-11-29T10:46:04.984Z,27.03
2022-11-29T10:48:34.069Z,27.57
2022-11-29T10:51:01.543Z,29.20
2022-11-29T10:53:33.192Z,30.40
2022-11-29T10:56:09.401Z,28.17
2022-11-29T10:58:36.655Z,27.47
2022-11-29T11:01:06.898Z,27.20
2022-11-29T11:03:52.943Z,27.37
2022-11-29T11:06:26.918Z,28.80
2022-11-29T11:08:56.434Z,27.98
2022-11-29T11:11:33.374Z,29.27
2022-11-29T11:14:24.540Z,26.93
2022-11-29T11:16:54.708Z,27.53
2022-11-29T11:19:32.690Z,27.07
2022-11-29T11:22:01.477Z,29.03
2022-11-29T11:24:30.707Z,27.03
2022-11-29T11:26:58.161Z,26.73
2022-11-29T11:29:32.202Z,26.43
2022-11-29T11:31:59.772Z,28.08
2022-11-29T11:34:31.720Z,84.13
2022-11-29T11:37:21.939Z,29.37
2022-11-29T11:39:51.429Z,28.37
2022-11-29T11:42:38.001Z,29.40
2022-11-29T11:45:10.707Z,26.40
2022-11-29T11:47:49.719Z,29.10
2022-11-29T11:50:52.266Z,28.00
2022-11-29T11:53:22.258Z,27.43
2022-11-29T11:56:05.768Z,27.63
2022-11-29T11:58:36.197Z,27.93
2022-11-29T12:01:12.292Z,29.67
2022-11-29T12:03:56.921Z,27.50
2022-11-29T12:06:46.429Z,27.80
2022-11-29T12:09:41.636Z,31.07
2022-11-29T12:12:27.261Z,28.90
2022-11-29T12:15:05.473Z,26.40
2022-11-29T12:17:44.244Z,28.83
2022-11-29T12:20:39.976Z,27.33
2022-11-29T12:23:12.715Z,28.13
2022-11-29T12:25:44.542Z,26.93
2022-11-29T12:28:18.632Z,26.60
2022-11-29T12:30:56.994Z,27.33
2022-11-29T12:33:47.799Z,27.63
2022-11-29T12:36:32.983Z,27.60
2022-11-29T12:39:14.537Z,25.73
2022-11-29T12:41:56.573Z,25.90
2022-11-29T12:44:56.912Z,26.37
2022-11-29T12:47:59.164Z,27.07
2022-11-29T12:50:31.677Z,27.80
2022-11-29T12:53:37.013Z,25.57
2022-11-29T12:58:55.862Z,27.00
2022-11-29T13:01:51.226Z,24.77
2022-11-29T13:04:46.444Z,26.33
2022-11-29T13:07:32.048Z,25.83
2022-11-29T13:10:27.574Z,26.27
2022-11-29T13:12:58.432Z,25.63
2022-11-29T13:15:35.770Z,25.77
2022-11-29T13:18:11.225Z,27.20
2022-11-29T13:20:44.935Z,24.97
2022-11-29T13:23:39.195Z,23.98
2022-11-29T13:26:12.843Z,24.43
2022-11-29T13:28:42.149Z,25.40
2022-11-29T13:31:21.860Z,25.03
2022-11-29T13:34:04.401Z,24.80
2022-11-29T13:36:59.731Z,25.40
2022-11-29T13:39:55.295Z,26.17
2022-11-29T13:42:45.417Z,23.53
2022-11-29T13:45:33.898Z,26.20
2022-11-29T13:48:01.939Z,24.70
2022-11-29T13:50:39.060Z,25.67
2022-11-29T13:53:13.627Z,25.50
2022-11-29T13:55:46.157Z,27.00
2022-11-29T13:58:17.879Z,25.57
2022-11-29T14:00:44.955Z,26.93
2022-11-29T14:03:29.293Z,25.13
2022-11-29T14:06:02.308Z,26.38
2022-11-29T14:08:55.140Z,25.07
2022-11-29T14:11:29.052Z,26.23
2022-11-29T14:14:09.046Z,25.50
2022-11-29T14:16:47.118Z,27.33
2022-11-29T14:19:21.584Z,25.73
2022-11-29T14:22:06.378Z,25.07
2022-11-29T14:24:36.088Z,25.20
2022-11-29T14:27:07.321Z,24.87
2022-11-29T14:29:49.601Z,26.03
2022-11-29T14:32:27.988Z,25.77
2022-11-29T14:35:20.385Z,27.77
2022-11-29T14:38:10.635Z,25.87
2022-11-29T14:40:40.292Z,27.83
2022-11-29T14:43:30.063Z,26.73
2022-11-29T14:46:15.033Z,25.80
2022-11-29T14:48:45.237Z,25.87
2022-11-29T14:51:19.441Z,27.27
2022-11-29T14:53:48.197Z,26.90
2022-11-29T14:56:35.220Z,27.40
2022-11-29T14:59:39.942Z,26.47
2022-11-29T15:02:07.837Z,41.78
2022-11-29T15:04:35.915Z,29.27
2022-11-29T15:07:03.179Z,31.63
2022-11-29T15:09:32.210Z,38.67
2022-11-29T15:12:02.791Z,37.43
2022-11-29T15:14:38.007Z,31.43
2022-11-29T15:17:11.730Z,28.97
2022-11-29T15:19:57.561Z,27.60
2022-11-29T15:22:42.845Z,28.73
2022-11-29T15:25:16.267Z,29.23
2022-11-29T15:27:53.541Z,30.23
2022-11-29T15:30:40.604Z,26.77
2022-11-29T15:33:18.148Z,29.30
2022-11-29T15:35:49.935Z,27.27
2022-11-29T15:38:18.152Z,28.53
2022-11-29T15:40:52.781Z,28.50
2022-11-29T15:43:22.903Z,29.33
2022-11-29T15:45:51.640Z,29.20
2022-11-29T15:48:20.414Z,28.07
2022-11-29T15:51:02.470Z,28.17
2022-11-29T15:53:31.431Z,29.80
2022-11-29T15:55:59.291Z,27.87
2022-11-29T15:58:28.038Z,29.90
2022-11-29T16:00:55.258Z,37.60
2022-11-29T16:03:26.211Z,34.03
2022-11-29T16:06:00.232Z,30.17
2022-11-29T16:08:30.917Z,27.08
2022-11-29T16:10:59.028Z,30.73
2022-11-29T16:13:25.810Z,31.60
2022-11-29T16:16:15.598Z,29.97
2022-11-29T16:18:44.697Z,31.07
2022-11-29T16:21:25.429Z,28.70
2022-11-29T16:23:52.705Z,39.57
2022-11-29T16:26:30.769Z,40.30
2022-11-29T16:28:58.049Z,31.10
2022-11-29T16:31:32.402Z,34.43
2022-11-29T16:36:32.359Z,31.70
2022-11-29T16:39:05.623Z,33.80
2022-11-29T16:41:37.360Z,31.93
2022-11-29T16:44:06.371Z,32.53
2022-11-29T16:46:36.030Z,35.73
2022-11-29T16:49:35.937Z,32.50
2022-11-29T16:52:03.955Z,43.07
2022-11-29T16:54:34.251Z,40.13
2022-11-29T16:57:06.332Z,32.10
2022-11-29T16:59:35.192Z,36.60
2022-11-29T17:02:02.147Z,32.53
2022-11-29T17:04:29.081Z,32.93
2022-11-29T17:06:56.794Z,35.20
2022-11-29T17:09:26.588Z,33.47
2022-11-29T17:11:54.293Z,32.57
2022-11-29T17:14:21.122Z,34.10
2022-11-29T17:16:52.031Z,31.93
2022-11-29T17:19:24.207Z,34.00
2022-11-29T17:21:52.012Z,31.90
2022-11-29T17:24:20.331Z,34.27
2022-11-29T17:26:47.166Z,34.53
2022-11-29T17:29:15.490Z,35.60
2022-11-29T17:31:46.368Z,35.10
2022-11-29T17:34:13.329Z,36.27
2022-11-29T17:36:40.916Z,34.47
2022-11-29T17:39:08.249Z,36.67
2022-11-29T17:41:35.229Z,33.90
2022-11-29T17:44:02.487Z,32.93
2022-11-29T17:46:31.808Z,36.63
2022-11-29T17:48:59.908Z,34.10
2022-11-29T17:54:14.524Z,37.07
2022-11-29T17:56:41.312Z,36.20
2022-11-29T17:59:08.173Z,35.33
2022-11-29T18:01:36.143Z,37.50
2022-11-29T18:04:04.721Z,35.87
2022-11-29T18:06:35.114Z,35.20
2022-11-29T18:09:02.784Z,36.67
2022-11-29T18:11:30.914Z,37.80
2022-11-29T18:13:58.482Z,35.83
2022-11-29T18:16:33.015Z,36.70
2022-11-29T18:19:09.262Z,37.47
2022-11-29T18:21:36.754Z,37.37
2022-11-29T18:24:05.074Z,38.90
2022-11-29T18:26:33.082Z,37.47
2022-11-29T18:29:00.415Z,36.73
2022-11-29T18:31:29.847Z,36.77
2022-11-29T18:33:58.693Z,35.70
2022-11-29T18:36:35.051Z,36.50
2022-11-29T18:39:05.517Z,36.53
2022-11-29T18:41:32.496Z,38.90
2022-11-29T18:44:02.099Z,37.57
2022-11-29T18:46:32.362Z,38.80
2022-11-29T18:49:01.106Z,36.17
2022-11-29T18:51:29.529Z,35.03
2022-11-29T18:53:57.322Z,37.13
2022-11-29T18:56:26.487Z,38.83
2022-11-29T18:59:01.188Z,36.93
2022-11-29T19:01:30.369Z,38.37
2022-11-29T19:03:58.716Z,36.13
2022-11-29T19:06:27.741Z,38.70
2022-11-29T19:08:54.784Z,38.03
2022-11-29T19:11:23.351Z,37.83
2022-11-29T19:13:59.812Z,37.63
2022-11-29T19:16:28.760Z,37.53
2022-11-29T19:18:57.313Z,38.70
2022-11-29T19:21:25.018Z,40.23
2022-11-29T19:23:57.055Z,37.10
2022-11-29T19:26:25.315Z,38.93
2022-11-29T19:28:52.455Z,38.07
2022-11-29T19:31:20.828Z,42.03
2022-11-29T19:33:47.720Z,40.33
2022-11-29T19:36:17.182Z,40.77
2022-11-29T19:38:48.799Z,41.27
2022-11-29T19:41:23.640Z,39.13
2022-11-29T19:43:50.667Z,41.00
2022-11-29T19:46:26.491Z,40.27
2022-11-29T19:48:54.889Z,39.57
2022-11-29T19:51:22.826Z,38.90
2022-11-29T19:53:53.501Z,37.87
2022-11-29T19:56:21.112Z,41.27
2022-11-29T19:58:47.982Z,41.43
2022-11-29T20:01:17.488Z,41.80
2022-11-29T20:03:47.850Z,41.70
2022-11-29T20:06:16.089Z,43.83
2022-11-29T20:08:43.211Z,39.97
2022-11-29T20:11:13.095Z,38.60
2022-11-29T20:13:41.040Z,42.07
2022-11-29T20:16:10.374Z,41.73
2022-11-29T20:18:39.645Z,41.27
2022-11-29T20:21:13.056Z,43.40
2022-11-29T20:23:41.020Z,40.08
2022-11-29T20:26:15.127Z,42.40
2022-11-29T20:28:42.735Z,42.50
2022-11-29T20:31:15.622Z,40.87
2022-11-29T20:33:44.192Z,42.07
2022-11-29T20:36:32.324Z,42.03
2022-11-29T20:39:10.757Z,42.63
2022-11-29T20:41:51.092Z,42.60
2022-11-29T20:44:26.525Z,42.57
2022-11-29T20:46:53.623Z,42.13
2022-11-29T20:49:20.772Z,42.43
2022-11-29T20:51:55.942Z,43.13
2022-11-29T20:54:23.119Z,43.17
2022-11-29T20:56:49.909Z,43.20
2022-11-29T20:59:16.784Z,41.80
2022-11-29T21:01:43.664Z,42.87
2022-11-29T21:04:10.549Z,39.90
2022-11-29T21:06:40.465Z,41.83
2022-11-29T21:09:16.705Z,42.60
2022-11-29T21:11:50.464Z,42.37
2022-11-29T21:14:22.691Z,39.78
2022-11-29T21:16:53.303Z,41.33
2022-11-29T21:19:25.910Z,40.13
2022-11-29T21:22:15.046Z,41.33
2022-11-29T21:25:09.047Z,40.90
2022-11-29T21:30:21.768Z,38.87
2022-11-29T21:32:50.799Z,41.67
2022-11-29T21:35:20.515Z,41.07
2022-11-29T21:37:48.343Z,42.37
2022-11-29T21:40:18.145Z,41.37
2022-11-29T21:42:46.602Z,42.40
2022-11-29T21:45:16.286Z,41.53
2022-11-29T21:47:46.474Z,39.80
2022-11-29T21:50:13.489Z,42.43
2022-11-29T21:52:46.737Z,42.27
2022-11-29T21:55:14.232Z,39.70
2022-11-29T21:57:47.949Z,42.83
2022-11-29T22:00:16.754Z,42.08
2022-11-29T22:02:47.661Z,40.70
2022-11-29T22:05:20.949Z,40.03
2022-11-29T22:07:54.904Z,41.13
2022-11-29T22:10:30.578Z,40.77
2022-11-29T22:12:59.812Z,40.73
2022-11-29T22:18:25.245Z,39.27
2022-11-29T22:21:03.824Z,41.08
2022-11-29T22:23:47.093Z,41.33
2022-11-29T22:26:27.443Z,38.17
2022-11-29T22:29:01.579Z,44.17
2022-11-29T22:31:34.460Z,40.87
2022-11-29T22:34:01.597Z,39.47
2022-11-29T22:36:28.962Z,43.37
2022-11-29T22:39:01.973Z,39.47
2022-11-29T22:41:35.232Z,39.40
2022-11-29T22:44:06.621Z,39.10
2022-11-29T22:46:37.842Z,38.80
2022-11-29T22:49:13.141Z,42.23
2022-11-29T22:51:42.176Z,38.33
2022-11-29T22:54:11.950Z,41.90
2022-11-29T22:56:47.213Z,40.67
2022-11-29T22:59:19.603Z,40.47
2022-11-29T23:02:02.117Z,41.27
2022-11-29T23:04:45.003Z,39.30
2022-11-29T23:07:21.709Z,41.40
2022-11-29T23:09:51.893Z,40.20
2022-11-29T23:12:25.392Z,41.13
2022-11-29T23:14:56.346Z,41.03
2022-11-29T23:17:23.793Z,42.23
2022-11-29T23:19:50.587Z,42.17
2022-11-29T23:22:17.368Z,39.77
2022-11-29T23:24:46.663Z,42.90
2022-11-29T23:27:13.622Z,40.73
2022-11-29T23:29:40.469Z,39.03
2022-11-29T23:32:07.404Z,41.17
2022-11-29T23:34:34.405Z,38.83
2022-11-29T23:37:01.205Z,41.50
2022-11-29T23:39:28.067Z,41.40
2022-11-29T23:41:54.865Z,40.53
2022-11-29T23:44:22.000Z,42.60
2022-11-29T23:46:48.795Z,41.53
2022-11-29T23:49:15.649Z,42.70
2022-11-29T23:51:42.465Z,41.70
2022-11-29T23:54:09.983Z,39.97
2022-11-29T23:56:37.652Z,40.60
2022-11-29T23:59:04.524Z,40.37
